Barra do Ribeiro, Brazil
Current Conditions -  °F | °C
As of 12:00 PM on Sunday 21 Dec 2014 (Local Time) from SBPA Reporting Station
Light Rain Light Rain  
Wind Chill: 75°   Ceiling: 8000
Heat Index: 75°   Visibility: 6mi
Dew Point: 73°   Wind: 8mph
Humidity: 94%   Direction: 100°E
Pressure: 29.56"   Gusts: NA
Location:  30.29°S, 51.3°W
Report Text: SBPA 211400Z 10007KT 9999 -RA SCT030 BKN080 BKN100 24/23 Q1001
Loading
Personal Weather Stations






























Interactive Weather Map New forecast layout! Learn more

10-Day Weather Forecast

Advertisements
Track Severe Weather on mobile